Time;durP1;ratioP1;P1;durP2;ratioP2;P2;SDS_P1;SDS_P2;PMS_P1;PMS_P2;Temp;Humidity;BMP_temperature;BMP_pressure;BME280_temperature;BME280_humidity;BME280_pressure;Samples;Min_cycle;Max_cycle;Signal;HPM_P1;HPM_P2
2022/01/08 00:01:38;;;;;;;2.05;1.48;;;;;;;;;;4993796;28;20066;-70
2022/01/08 00:04:24;;;;;;;3.15;2.00;;;;;;;;;;5003625;28;20521;-73
2022/01/08 00:07:09;;;;;;;2.85;1.60;;;;;;;;;;5010981;28;20124;-69
2022/01/08 00:09:54;;;;;;;2.92;1.63;;;;;;;;;;5006001;28;20029;-69
2022/01/08 00:12:39;;;;;;;3.28;1.90;;;;;;;;;;5026468;28;20056;-70
2022/01/08 00:15:25;;;;;;;4.68;1.77;;;;;;;;;;5011019;28;20026;-69
2022/01/08 00:18:10;;;;;;;3.22;2.15;;;;;;;;;;5012960;28;20095;-68
2022/01/08 00:20:55;;;;;;;3.70;1.88;;;;;;;;;;5014020;28;20400;-68
2022/01/08 00:23:40;;;;;;;3.42;1.88;;;;;;;;;;5008200;28;20068;-68
2022/01/08 00:26:26;;;;;;;5.15;2.17;;;;;;;;;;5014315;28;20044;-66
2022/01/08 00:29:11;;;;;;;4.13;1.83;;;;;;;;;;5008612;28;20053;-67
2022/01/08 00:31:56;;;;;;;3.95;2.08;;;;;;;;;;5014030;28;20210;-67
2022/01/08 00:34:42;;;;;;;5.30;1.80;;;;;;;;;;5007017;28;20022;-66
2022/01/08 00:37:27;;;;;;;4.72;1.80;;;;;;;;;;5013511;28;20380;-69
2022/01/08 00:40:13;;;;;;;4.05;1.77;;;;;;;;;;5027385;28;20187;-68
2022/01/08 00:42:59;;;;;;;3.42;1.85;;;;;;;;;;4997170;28;20092;-69
2022/01/08 00:45:44;;;;;;;3.78;1.92;;;;;;;;;;5013122;28;20514;-70
2022/01/08 00:48:29;;;;;;;2.55;1.73;;;;;;;;;;5012421;28;20129;-69
2022/01/08 00:51:14;;;;;;;3.60;1.85;;;;;;;;;;5007988;28;20358;-71
2022/01/08 00:54:00;;;;;;;4.43;1.77;;;;;;;;;;5013154;28;20025;-68
2022/01/08 00:56:45;;;;;;;3.63;1.48;;;;;;;;;;5007881;28;20030;-62
2022/01/08 00:59:30;;;;;;;2.25;1.52;;;;;;;;;;4995010;28;20492;-62
2022/01/08 01:02:15;;;;;;;4.85;2.13;;;;;;;;;;5012917;28;20418;-61
2022/01/08 01:05:01;;;;;;;2.65;1.52;;;;;;;;;;5007165;28;20087;-62
2022/01/08 01:07:46;;;;;;;3.78;1.35;;;;;;;;;;5017388;28;20063;-61
2022/01/08 01:10:32;;;;;;;3.70;1.83;;;;;;;;;;5008137;28;20358;-61
2022/01/08 01:13:17;;;;;;;1.92;1.40;;;;;;;;;;5012299;28;20033;-68
2022/01/08 01:16:03;;;;;;;1.90;1.50;;;;;;;;;;5014394;28;20048;-62
2022/01/08 01:18:48;;;;;;;5.50;1.83;;;;;;;;;;4988341;28;20037;-62
2022/01/08 01:21:33;;;;;;;2.78;1.45;;;;;;;;;;5013094;28;20460;-63
2022/01/08 01:24:22;;;;;;;3.88;1.30;;;;;;;;;;5016804;28;20033;-61
2022/01/08 01:27:31;;;;;;;2.90;1.48;;;;;;;;;;5016079;28;20095;-65
2022/01/08 01:30:18;;;;;;;1.75;1.27;;;;;;;;;;5015293;28;20141;-69
2022/01/08 01:42:40;;;;;;;4.93;1.70;;;;;;;;;;5009816;28;20030;-64
2022/01/08 01:48:29;;;;;;;4.32;1.80;;;;;;;;;;5021574;28;20104;-69
2022/01/08 01:51:17;;;;;;;4.18;2.08;;;;;;;;;;5012685;28;20095;-70
2022/01/08 01:54:02;;;;;;;3.63;1.60;;;;;;;;;;5016310;28;20025;-70
2022/01/08 01:56:48;;;;;;;3.28;1.85;;;;;;;;;;4994777;28;20483;-69
2022/01/08 01:59:34;;;;;;;3.40;1.58;;;;;;;;;;5002030;28;20025;-67
2022/01/08 02:02:20;;;;;;;6.07;2.22;;;;;;;;;;5001656;28;20483;-69
2022/01/08 02:05:05;;;;;;;3.17;1.70;;;;;;;;;;5015561;28;20389;-69
2022/01/08 02:07:50;;;;;;;4.28;1.50;;;;;;;;;;5015998;28;20063;-69
2022/01/08 02:10:36;;;;;;;3.38;1.63;;;;;;;;;;5003569;28;20041;-68
2022/01/08 02:13:21;;;;;;;4.82;1.77;;;;;;;;;;5015359;28;20033;-69
2022/01/08 02:16:16;;;;;;;2.80;1.85;;;;;;;;;;5015384;28;20041;-67
2022/01/08 02:19:01;;;;;;;3.10;1.60;;;;;;;;;;5012664;28;20095;-70
2022/01/08 02:21:50;;;;;;;4.03;1.70;;;;;;;;;;5002520;28;20048;-67
2022/01/08 02:24:35;;;;;;;6.32;1.77;;;;;;;;;;4999706;28;20499;-69
2022/01/08 02:27:21;;;;;;;5.43;1.88;;;;;;;;;;4999020;28;20037;-64
2022/01/08 02:30:07;;;;;;;2.88;1.67;;;;;;;;;;5015359;28;20044;-64
2022/01/08 02:32:52;;;;;;;5.70;1.85;;;;;;;;;;5010798;28;20160;-64
2022/01/08 02:35:37;;;;;;;5.03;1.60;;;;;;;;;;5029688;28;20411;-63
2022/01/08 02:38:24;;;;;;;3.65;1.60;;;;;;;;;;5010361;28;20037;-64
2022/01/08 02:41:10;;;;;;;4.38;1.60;;;;;;;;;;5014494;28;20047;-66
2022/01/08 02:43:55;;;;;;;3.15;1.52;;;;;;;;;;5013286;28;20548;-71
2022/01/08 02:46:41;;;;;;;2.53;1.50;;;;;;;;;;5015825;28;20051;-67
2022/01/08 02:49:26;;;;;;;1.92;1.27;;;;;;;;;;5006632;28;20037;-67
2022/01/08 02:52:12;;;;;;;3.95;1.27;;;;;;;;;;4990629;28;20030;-67
2022/01/08 02:54:57;;;;;;;4.07;1.63;;;;;;;;;;5008928;28;20044;-68
2022/01/08 02:57:42;;;;;;;3.85;1.33;;;;;;;;;;4988988;28;20021;-68
2022/01/08 03:00:28;;;;;;;3.95;1.40;;;;;;;;;;5013593;28;20292;-67
2022/01/08 03:03:14;;;;;;;2.38;1.23;;;;;;;;;;5014541;28;20040;-68
2022/01/08 03:05:59;;;;;;;4.18;1.52;;;;;;;;;;5014813;28;20076;-64
2022/01/08 03:08:44;;;;;;;3.13;1.25;;;;;;;;;;5014169;28;20047;-65
2022/01/08 03:11:30;;;;;;;4.03;1.70;;;;;;;;;;5000280;28;20598;-65
2022/01/08 03:14:15;;;;;;;4.97;2.05;;;;;;;;;;5013896;28;20110;-66
2022/01/08 03:17:00;;;;;;;1.85;1.20;;;;;;;;;;4997295;28;20081;-63
2022/01/08 03:19:46;;;;;;;4.25;1.70;;;;;;;;;;5012291;28;20274;-68
2022/01/08 03:22:31;;;;;;;2.85;1.50;;;;;;;;;;5014322;28;20425;-65
2022/01/08 03:25:16;;;;;;;2.97;1.58;;;;;;;;;;5006878;28;20184;-63
2022/01/08 03:28:01;;;;;;;3.40;1.83;;;;;;;;;;5001587;28;20380;-64
2022/01/08 03:30:47;;;;;;;4.32;2.00;;;;;;;;;;5007677;28;20084;-63
2022/01/08 03:33:32;;;;;;;3.50;1.90;;;;;;;;;;5027080;28;20029;-63
2022/01/08 03:36:18;;;;;;;3.65;1.88;;;;;;;;;;5008256;28;20032;-63
2022/01/08 03:39:03;;;;;;;3.70;1.67;;;;;;;;;;5014322;28;20446;-63
2022/01/08 03:41:48;;;;;;;3.63;1.90;;;;;;;;;;4995271;28;20065;-63
2022/01/08 03:44:34;;;;;;;4.18;1.88;;;;;;;;;;5014113;28;20443;-63
2022/01/08 03:50:13;;;;;;;4.47;1.60;;;;;;;;;;5014526;28;20478;-62
2022/01/08 03:52:59;;;;;;;3.83;1.85;;;;;;;;;;5014196;28;20065;-61
2022/01/08 03:55:44;;;;;;;3.60;2.30;;;;;;;;;;4999581;28;20018;-65
2022/01/08 03:58:29;;;;;;;4.03;2.00;;;;;;;;;;5007758;28;20401;-63
2022/01/08 04:01:15;;;;;;;3.03;1.77;;;;;;;;;;4997929;28;20048;-68
2022/01/08 04:04:00;;;;;;;3.67;1.83;;;;;;;;;;5013887;28;20034;-69
2022/01/08 04:06:45;;;;;;;4.03;2.03;;;;;;;;;;5028103;28;20030;-70
2022/01/08 04:09:30;;;;;;;3.17;2.35;;;;;;;;;;5012782;28;20052;-69
2022/01/08 04:12:21;;;;;;;5.10;2.50;;;;;;;;;;4996066;28;20038;-68
2022/01/08 04:15:20;;;;;;;3.70;2.50;;;;;;;;;;5028192;28;20037;-62
2022/01/08 04:18:06;;;;;;;3.20;1.98;;;;;;;;;;5013816;28;20071;-64
2022/01/08 04:23:56;;;;;;;5.47;2.63;;;;;;;;;;5009801;28;20468;-63
2022/01/08 04:26:41;;;;;;;2.78;1.90;;;;;;;;;;5023418;28;20037;-64
2022/01/08 04:29:27;;;;;;;3.80;2.20;;;;;;;;;;5023079;28;20487;-65
2022/01/08 04:32:12;;;;;;;4.45;2.25;;;;;;;;;;5000294;28;20116;-64
2022/01/08 04:34:57;;;;;;;3.50;1.92;;;;;;;;;;5010785;28;20044;-62
2022/01/08 04:37:44;;;;;;;4.68;2.03;;;;;;;;;;5013715;28;20099;-64
2022/01/08 04:40:29;;;;;;;4.95;2.42;;;;;;;;;;5011330;28;20033;-62
2022/01/08 04:43:15;;;;;;;4.55;2.47;;;;;;;;;;4998117;28;20558;-64
2022/01/08 04:46:01;;;;;;;4.53;2.28;;;;;;;;;;4998610;28;20117;-65
2022/01/08 04:48:46;;;;;;;3.95;2.38;;;;;;;;;;4999379;28;20034;-63
2022/01/08 04:51:31;;;;;;;4.55;2.00;;;;;;;;;;5014312;28;20040;-63
2022/01/08 04:54:16;;;;;;;4.10;2.13;;;;;;;;;;5004075;28;20471;-64
2022/01/08 04:57:02;;;;;;;2.92;2.22;;;;;;;;;;5016596;28;20029;-60
2022/01/08 04:59:47;;;;;;;3.65;1.95;;;;;;;;;;5009509;28;20501;-57
2022/01/08 05:02:32;;;;;;;2.95;1.75;;;;;;;;;;4998024;28;20485;-61
2022/01/08 05:05:17;;;;;;;3.75;2.10;;;;;;;;;;5009117;28;20041;-61
2022/01/08 05:08:03;;;;;;;4.75;2.58;;;;;;;;;;5021368;28;20464;-59
2022/01/08 05:10:48;;;;;;;4.88;2.53;;;;;;;;;;5008129;28;20029;-67
2022/01/08 05:13:33;;;;;;;3.80;2.38;;;;;;;;;;4997671;28;20034;-61
2022/01/08 05:16:19;;;;;;;4.40;2.10;;;;;;;;;;5000726;28;20041;-60
2022/01/08 05:19:04;;;;;;;3.20;1.55;;;;;;;;;;5001488;28;20049;-62
2022/01/08 05:21:55;;;;;;;2.92;2.08;;;;;;;;;;5009964;28;20129;-63
2022/01/08 05:24:40;;;;;;;2.55;1.95;;;;;;;;;;5017124;28;20041;-62
2022/01/08 05:27:25;;;;;;;3.67;2.08;;;;;;;;;;5031353;28;20034;-61
2022/01/08 05:30:11;;;;;;;3.13;2.17;;;;;;;;;;5016451;28;20042;-67
2022/01/08 05:32:57;;;;;;;6.25;2.00;;;;;;;;;;4997599;28;20041;-63
2022/01/08 05:35:44;;;;;;;2.67;2.03;;;;;;;;;;4998433;28;20037;-63
2022/01/08 05:38:29;;;;;;;4.38;1.80;;;;;;;;;;5012163;28;20126;-62
2022/01/08 05:41:14;;;;;;;2.70;1.70;;;;;;;;;;5015942;28;20034;-62
2022/01/08 05:44:00;;;;;;;2.13;1.40;;;;;;;;;;5002681;28;20034;-62
2022/01/08 05:46:47;;;;;;;2.47;1.35;;;;;;;;;;5003451;28;20208;-63
2022/01/08 05:49:32;;;;;;;3.00;1.50;;;;;;;;;;5016223;28;20597;-67
2022/01/08 05:52:17;;;;;;;2.13;1.67;;;;;;;;;;5015337;28;20061;-61
2022/01/08 05:55:03;;;;;;;12.38;6.47;;;;;;;;;;5011324;28;20117;-63
2022/01/08 05:57:48;;;;;;;5.07;3.38;;;;;;;;;;5023561;28;20025;-63
2022/01/08 06:00:33;;;;;;;1.63;1.08;;;;;;;;;;4996799;28;20473;-62
2022/01/08 06:03:19;;;;;;;2.30;1.17;;;;;;;;;;5008224;28;20077;-62
2022/01/08 06:06:04;;;;;;;1.55;1.10;;;;;;;;;;5005606;28;20463;-64
2022/01/08 06:08:49;;;;;;;1.88;0.90;;;;;;;;;;5015380;28;20037;-68
2022/01/08 06:11:35;;;;;;;1.85;1.30;;;;;;;;;;5009965;28;20564;-68
2022/01/08 06:14:20;;;;;;;2.35;0.70;;;;;;;;;;5030493;28;20180;-66
2022/01/08 06:17:05;;;;;;;0.80;0.60;;;;;;;;;;5001315;28;20036;-69
2022/01/08 06:19:51;;;;;;;1.13;0.70;;;;;;;;;;4996552;28;20032;-69
2022/01/08 06:22:36;;;;;;;0.88;0.60;;;;;;;;;;4998479;28;20356;-70
2022/01/08 06:25:21;;;;;;;1.23;0.50;;;;;;;;;;5015511;28;20477;-70
2022/01/08 06:28:06;;;;;;;0.52;0.52;;;;;;;;;;5014490;28;20500;-68
2022/01/08 06:30:53;;;;;;;1.35;1.00;;;;;;;;;;5016075;28;20313;-67
2022/01/08 06:33:39;;;;;;;1.25;0.43;;;;;;;;;;5009236;28;20064;-66
2022/01/08 06:36:24;;;;;;;0.60;0.50;;;;;;;;;;5015117;28;20296;-66
2022/01/08 06:39:09;;;;;;;1.75;0.70;;;;;;;;;;5013580;28;20547;-66
2022/01/08 06:41:54;;;;;;;0.60;0.60;;;;;;;;;;4996131;28;20072;-68
2022/01/08 06:44:40;;;;;;;1.95;0.82;;;;;;;;;;5008620;28;20365;-68
2022/01/08 06:47:25;;;;;;;0.88;0.60;;;;;;;;;;5008693;28;20037;-64
2022/01/08 06:50:10;;;;;;;0.73;0.55;;;;;;;;;;5007919;28;20045;-63
2022/01/08 06:52:55;;;;;;;0.65;0.65;;;;;;;;;;5010137;28;20083;-63
2022/01/08 06:55:41;;;;;;;1.35;0.80;;;;;;;;;;5014205;28;20027;-62
2022/01/08 06:58:27;;;;;;;1.08;0.50;;;;;;;;;;5009252;28;20527;-62
2022/01/08 07:01:12;;;;;;;2.58;0.70;;;;;;;;;;5014322;28;20072;-70
2022/01/08 07:03:57;;;;;;;1.10;0.75;;;;;;;;;;5013971;28;20029;-69
2022/01/08 07:06:42;;;;;;;1.25;0.93;;;;;;;;;;4995643;28;20124;-68
2022/01/08 07:09:28;;;;;;;1.73;0.88;;;;;;;;;;5012810;28;20492;-70
2022/01/08 07:12:13;;;;;;;3.03;0.95;;;;;;;;;;5030607;28;20021;-69
2022/01/08 07:14:58;;;;;;;9.68;5.20;;;;;;;;;;5028416;28;20026;-68
2022/01/08 07:17:44;;;;;;;2.35;0.90;;;;;;;;;;5015136;28;20033;-68
2022/01/08 07:20:29;;;;;;;1.05;0.77;;;;;;;;;;5014262;28;20029;-59
2022/01/08 07:23:14;;;;;;;1.17;0.85;;;;;;;;;;4995328;28;20038;-59
2022/01/08 07:25:59;;;;;;;2.97;0.93;;;;;;;;;;5018329;28;20477;-59
2022/01/08 07:28:44;;;;;;;1.67;0.90;;;;;;;;;;4995734;28;20034;-58
2022/01/08 07:31:30;;;;;;;1.23;0.90;;;;;;;;;;5013705;28;20664;-59
2022/01/08 07:34:15;;;;;;;3.10;1.00;;;;;;;;;;5014913;28;20035;-59
2022/01/08 07:37:00;;;;;;;1.40;1.08;;;;;;;;;;4994423;28;20105;-57
2022/01/08 07:39:45;;;;;;;1.95;0.90;;;;;;;;;;5009820;28;20103;-67
2022/01/08 07:42:31;;;;;;;4.55;1.13;;;;;;;;;;5009221;28;20492;-66
2022/01/08 07:45:16;;;;;;;2.83;1.65;;;;;;;;;;5013997;28;20029;-70
2022/01/08 07:48:02;;;;;;;4.25;1.42;;;;;;;;;;4994841;28;20037;-67
2022/01/08 07:50:47;;;;;;;2.10;1.35;;;;;;;;;;5008850;28;20481;-66
2022/01/08 07:53:32;;;;;;;2.17;1.48;;;;;;;;;;5009542;28;20111;-68
2022/01/08 07:56:17;;;;;;;2.53;1.70;;;;;;;;;;5013489;28;20044;-68
2022/01/08 07:59:03;;;;;;;2.55;1.60;;;;;;;;;;5027129;28;20496;-70
2022/01/08 08:01:48;;;;;;;2.35;1.60;;;;;;;;;;5021643;28;20486;-71
2022/01/08 08:04:33;;;;;;;3.13;1.67;;;;;;;;;;5007953;28;20069;-70
2022/01/08 08:07:29;;;;;;;4.32;1.95;;;;;;;;;;5027737;28;20033;-69
2022/01/08 08:10:19;;;;;;;3.22;1.92;;;;;;;;;;4992141;28;20037;-70
2022/01/08 08:13:04;;;;;;;4.03;1.60;;;;;;;;;;5017432;28;20081;-74
2022/01/08 08:15:49;;;;;;;4.28;2.10;;;;;;;;;;5006745;28;20034;-63
2022/01/08 08:18:35;;;;;;;4.85;1.42;;;;;;;;;;5003596;28;20038;-69
2022/01/08 08:21:20;;;;;;;3.67;1.35;;;;;;;;;;4995964;28;20045;-69
2022/01/08 08:24:06;;;;;;;3.03;1.30;;;;;;;;;;4996481;28;20036;-69
2022/01/08 08:26:51;;;;;;;2.75;1.80;;;;;;;;;;4994373;28;20101;-70
2022/01/08 08:29:38;;;;;;;4.57;1.75;;;;;;;;;;5013407;28;20065;-69
2022/01/08 08:32:23;;;;;;;3.63;1.65;;;;;;;;;;5012689;28;20037;-68
2022/01/08 08:35:09;;;;;;;4.45;1.55;;;;;;;;;;5011481;28;20033;-61
2022/01/08 08:37:55;;;;;;;3.50;1.20;;;;;;;;;;5011891;28;20104;-61
2022/01/08 08:40:40;;;;;;;5.82;1.40;;;;;;;;;;5013888;28;20037;-59
2022/01/08 08:43:25;;;;;;;3.45;1.25;;;;;;;;;;5011481;28;20076;-61
2022/01/08 08:46:11;;;;;;;7.13;1.60;;;;;;;;;;5000215;28;20051;-59
2022/01/08 08:48:56;;;;;;;3.17;1.38;;;;;;;;;;5007265;28;20037;-60
2022/01/08 08:51:41;;;;;;;4.57;1.42;;;;;;;;;;5010156;28;20388;-68
2022/01/08 08:54:26;;;;;;;5.07;1.25;;;;;;;;;;5009358;28;20033;-59
2022/01/08 08:57:11;;;;;;;3.55;1.30;;;;;;;;;;5011535;28;20080;-58
2022/01/08 08:59:57;;;;;;;2.40;1.02;;;;;;;;;;5021531;28;20025;-60
2022/01/08 09:02:42;;;;;;;4.10;1.42;;;;;;;;;;5028074;28;20072;-58
2022/01/08 09:05:27;;;;;;;2.75;1.10;;;;;;;;;;5008988;28;20530;-61
2022/01/08 09:08:12;;;;;;;4.82;1.52;;;;;;;;;;5013983;28;20112;-59
2022/01/08 09:10:58;;;;;;;1.80;1.15;;;;;;;;;;5012685;28;20037;-62
2022/01/08 09:13:43;;;;;;;3.90;1.48;;;;;;;;;;5013095;28;20095;-67
2022/01/08 09:16:28;;;;;;;3.05;1.25;;;;;;;;;;4994263;28;20116;-67
2022/01/08 09:19:14;;;;;;;4.28;1.52;;;;;;;;;;4994149;28;20026;-68
2022/01/08 09:22:01;;;;;;;4.40;1.63;;;;;;;;;;4999263;28;20039;-68
2022/01/08 09:24:47;;;;;;;3.72;1.77;;;;;;;;;;5008001;28;20040;-68
2022/01/08 09:27:32;;;;;;;7.40;1.77;;;;;;;;;;5008463;28;20428;-70
2022/01/08 09:30:18;;;;;;;4.63;1.58;;;;;;;;;;5004763;28;20045;-72
2022/01/08 09:33:03;;;;;;;4.95;1.63;;;;;;;;;;5017171;28;20052;-70
2022/01/08 09:35:48;;;;;;;3.08;1.20;;;;;;;;;;5009628;28;20096;-69
2022/01/08 09:38:33;;;;;;;4.95;1.70;;;;;;;;;;5013154;28;20124;-68
2022/01/08 09:41:19;;;;;;;7.25;1.77;;;;;;;;;;5010224;28;20026;-69
2022/01/08 09:44:04;;;;;;;4.60;1.67;;;;;;;;;;5010878;28;20091;-71
2022/01/08 09:46:49;;;;;;;4.50;1.27;;;;;;;;;;5015650;28;20040;-67
2022/01/08 09:49:35;;;;;;;3.50;1.58;;;;;;;;;;5015308;28;20038;-59
2022/01/08 09:52:20;;;;;;;6.15;2.10;;;;;;;;;;5028702;28;20041;-60
2022/01/08 09:55:06;;;;;;;4.63;1.73;;;;;;;;;;5030553;28;20035;-61
2022/01/08 09:57:51;;;;;;;6.25;1.83;;;;;;;;;;5014642;28;20022;-59
2022/01/08 10:00:37;;;;;;;6.13;1.90;;;;;;;;;;5016054;28;20072;-63
2022/01/08 10:03:23;;;;;;;5.72;1.90;;;;;;;;;;5012420;28;20025;-60
2022/01/08 10:06:09;;;;;;;4.13;1.48;;;;;;;;;;5014324;28;20283;-54
2022/01/08 10:08:54;;;;;;;3.90;1.60;;;;;;;;;;5011457;28;20428;-61
2022/01/08 10:11:46;;;;;;;4.72;1.35;;;;;;;;;;4999829;28;20570;-60
2022/01/08 10:17:13;;;;;;;7.20;2.25;;;;;;;;;;4999490;28;20052;-59
2022/01/08 10:17:44;;;;;;;4.80;2.00;;;;;;;;;;5012820;28;20477;-60
2022/01/08 10:20:37;;;;;;;3.85;1.80;;;;;;;;;;5013825;28;20498;-60
2022/01/08 10:23:24;;;;;;;4.15;2.10;;;;;;;;;;5013223;28;20442;-75
2022/01/08 10:26:10;;;;;;;5.18;2.00;;;;;;;;;;5014943;28;20048;-63
2022/01/08 10:28:57;;;;;;;4.53;1.90;;;;;;;;;;5026369;28;20123;-66
2022/01/08 10:31:43;;;;;;;19.58;9.82;;;;;;;;;;4992428;28;20515;-63
2022/01/08 10:34:30;;;;;;;9.50;2.45;;;;;;;;;;5014530;28;20029;-64
2022/01/08 10:37:15;;;;;;;3.35;1.83;;;;;;;;;;5012291;28;20080;-61
2022/01/08 10:40:01;;;;;;;4.15;2.13;;;;;;;;;;5011588;28;20037;-63
2022/01/08 10:42:46;;;;;;;7.40;1.88;;;;;;;;;;5024722;28;20493;-63
2022/01/08 10:45:34;;;;;;;4.78;1.75;;;;;;;;;;5022322;28;20124;-63
2022/01/08 10:48:30;;;;;;;3.63;1.92;;;;;;;;;;5028548;28;20037;-65
2022/01/08 10:51:17;;;;;;;2.95;1.55;;;;;;;;;;5012548;28;20613;-65
2022/01/08 10:54:05;;;;;;;4.05;1.70;;;;;;;;;;5011156;28;20052;-67
2022/01/08 10:56:55;;;;;;;4.25;1.60;;;;;;;;;;5007251;28;20240;-65
2022/01/08 10:59:42;;;;;;;4.93;1.80;;;;;;;;;;5010897;28;20065;-64
2022/01/08 11:02:29;;;;;;;5.68;1.73;;;;;;;;;;5014463;28;20036;-66
2022/01/08 11:05:14;;;;;;;9.25;2.20;;;;;;;;;;4996333;28;20059;-61
2022/01/08 11:08:13;;;;;;;7.70;2.28;;;;;;;;;;5013366;28;20053;-63
2022/01/08 11:10:58;;;;;;;6.55;1.70;;;;;;;;;;4989767;28;20036;-62
2022/01/08 11:13:44;;;;;;;4.20;2.05;;;;;;;;;;5025506;28;20653;-62
2022/01/08 11:16:29;;;;;;;6.93;3.05;;;;;;;;;;5012443;28;20061;-61
2022/01/08 11:19:14;;;;;;;6.53;3.00;;;;;;;;;;5012250;28;20060;-60
2022/01/08 11:22:00;;;;;;;5.72;1.98;;;;;;;;;;5028293;28;20464;-62
2022/01/08 11:24:56;;;;;;;5.88;1.95;;;;;;;;;;5007755;28;20045;-65
2022/01/08 11:27:46;;;;;;;6.05;2.20;;;;;;;;;;5013510;28;20104;-63
2022/01/08 11:30:32;;;;;;;4.68;1.80;;;;;;;;;;5011829;28;20025;-62
2022/01/08 11:33:23;;;;;;;5.65;1.95;;;;;;;;;;4995305;28;20041;-61
2022/01/08 11:36:09;;;;;;;6.55;4.50;;;;;;;;;;5025377;28;20059;-62
2022/01/08 11:38:56;;;;;;;18.88;17.05;;;;;;;;;;5009563;28;20069;-67
2022/01/08 11:41:42;;;;;;;6.57;2.20;;;;;;;;;;5027921;28;20392;-65
2022/01/08 11:44:30;;;;;;;6.00;1.98;;;;;;;;;;5026695;28;20567;-62
2022/01/08 11:47:16;;;;;;;7.93;1.95;;;;;;;;;;5012115;28;20649;-64
2022/01/08 11:50:04;;;;;;;5.82;1.83;;;;;;;;;;5013074;28;20453;-62
2022/01/08 11:53:09;;;;;;;6.82;1.95;;;;;;;;;;5022213;28;20072;-62
2022/01/08 11:55:59;;;;;;;3.97;1.67;;;;;;;;;;5008143;28;20064;-71
2022/01/08 11:58:44;;;;;;;;;;;;;;;;;;5009903;28;20026;-62
2022/01/08 12:01:30;;;;;;;3.28;1.67;;;;;;;;;;5011522;28;19921;-66
2022/01/08 12:04:31;;;;;;;5.13;2.10;;;;;;;;;;5011478;28;20048;-65
2022/01/08 12:07:33;;;;;;;4.72;1.73;;;;;;;;;;5006226;28;20045;-63
2022/01/08 12:10:21;;;;;;;4.80;1.77;;;;;;;;;;4994265;28;20042;-65
2022/01/08 12:13:06;;;;;;;4.88;2.25;;;;;;;;;;5026363;28;20619;-64
2022/01/08 12:15:51;;;;;;;3.50;1.50;;;;;;;;;;5011227;28;20064;-64
2022/01/08 12:18:55;;;;;;;5.45;1.90;;;;;;;;;;5009015;28;20034;-71
2022/01/08 12:21:41;;;;;;;7.38;2.40;;;;;;;;;;4994273;28;20037;-69
2022/01/08 12:24:27;;;;;;;21.40;13.20;;;;;;;;;;5024979;28;20029;-67
2022/01/08 12:27:20;;;;;;;12.30;6.45;;;;;;;;;;5008130;28;20427;-68
2022/01/08 12:30:17;;;;;;;5.93;1.83;;;;;;;;;;5008682;28;20065;-70
2022/01/08 12:33:16;;;;;;;6.78;1.80;;;;;;;;;;5012960;28;20056;-62
2022/01/08 12:36:21;;;;;;;5.15;1.70;;;;;;;;;;5000114;28;20026;-67
2022/01/08 12:39:06;;;;;;;3.97;1.63;;;;;;;;;;5006465;28;20105;-68
2022/01/08 12:42:11;;;;;;;4.03;1.38;;;;;;;;;;5012230;28;20626;-67
2022/01/08 12:45:00;;;;;;;4.53;1.75;;;;;;;;;;5002100;28;20252;-69
2022/01/08 12:47:49;;;;;;;5.38;2.13;;;;;;;;;;5008996;28;20423;-67
2022/01/08 12:50:39;;;;;;;6.57;2.03;;;;;;;;;;5008251;28;20251;-67
2022/01/08 12:53:26;;;;;;;6.55;2.47;;;;;;;;;;5012124;28;20045;-65
2022/01/08 12:56:12;;;;;;;9.18;2.90;;;;;;;;;;5009022;28;20138;-64
2022/01/08 12:58:57;;;;;;;10.48;2.47;;;;;;;;;;5006984;28;20124;-64
2022/01/08 13:01:47;;;;;;;5.07;2.00;;;;;;;;;;5014784;28;20037;-67
2022/01/08 13:04:32;;;;;;;3.35;1.70;;;;;;;;;;5014144;28;20545;-70
2022/01/08 13:07:20;;;;;;;8.77;2.25;;;;;;;;;;5016700;28;20037;-68
2022/01/08 13:10:05;;;;;;;3.53;1.70;;;;;;;;;;5014809;28;20029;-66
2022/01/08 13:13:04;;;;;;;4.50;1.95;;;;;;;;;;5015245;28;20040;-64
2022/01/08 13:15:49;;;;;;;5.38;1.67;;;;;;;;;;5016376;28;20060;-66
2022/01/08 13:18:34;;;;;;;5.22;1.77;;;;;;;;;;5013827;28;20056;-65
2022/01/08 13:21:20;;;;;;;2.72;1.42;;;;;;;;;;5006576;28;20032;-67
2022/01/08 13:24:12;;;;;;;3.30;1.63;;;;;;;;;;4989326;28;20037;-67
2022/01/08 13:26:59;;;;;;;4.07;1.70;;;;;;;;;;5015474;28;20119;-67
2022/01/08 13:29:44;;;;;;;4.80;1.40;;;;;;;;;;5030209;28;20090;-65
2022/01/08 13:32:30;;;;;;;3.20;1.40;;;;;;;;;;5031193;28;20037;-64
2022/01/08 13:35:18;;;;;;;5.38;1.55;;;;;;;;;;5015927;28;20051;-66
2022/01/08 13:38:04;;;;;;;3.42;1.60;;;;;;;;;;5016459;28;20042;-66
2022/01/08 13:40:49;;;;;;;4.13;2.08;;;;;;;;;;5004603;28;20060;-67
2022/01/08 13:43:53;;;;;;;1.27;1.15;;;;;;;;;;5014264;28;20460;-67
2022/01/08 13:46:38;;;;;;;2.47;1.58;;;;;;;;;;5015881;28;20037;-65
2022/01/08 13:49:24;;;;;;;4.13;1.70;;;;;;;;;;5000052;28;20042;-65
2022/01/08 13:52:16;;;;;;;3.88;1.80;;;;;;;;;;5001164;28;20037;-67
2022/01/08 13:55:22;;;;;;;5.43;2.30;;;;;;;;;;5001338;28;20044;-65
2022/01/08 13:58:09;;;;;;;7.93;2.13;;;;;;;;;;5010310;28;20397;-66
2022/01/08 14:01:09;;;;;;;6.40;2.40;;;;;;;;;;5006486;28;20076;-66
2022/01/08 14:03:54;;;;;;;3.85;1.70;;;;;;;;;;5002036;28;20029;-63
2022/01/08 14:06:40;;;;;;;4.07;1.80;;;;;;;;;;5009098;28;20514;-62
2022/01/08 14:09:26;;;;;;;4.47;1.92;;;;;;;;;;4996294;28;20049;-68
2022/01/08 14:12:12;;;;;;;5.97;2.05;;;;;;;;;;5019439;28;20033;-67
2022/01/08 14:15:04;;;;;;;3.65;1.85;;;;;;;;;;5017948;28;20480;-65
2022/01/08 14:17:49;;;;;;;3.83;1.80;;;;;;;;;;5014785;28;20049;-65
2022/01/08 14:20:35;;;;;;;13.55;7.85;;;;;;;;;;5015577;28;20204;-68
2022/01/08 14:23:24;;;;;;;4.53;1.80;;;;;;;;;;5013315;28;20387;-71
2022/01/08 14:26:14;;;;;;;3.15;1.70;;;;;;;;;;5014974;28;20060;-63
2022/01/08 14:29:05;;;;;;;3.67;2.03;;;;;;;;;;4996195;28;20583;-60
2022/01/08 14:31:57;;;;;;;4.03;1.60;;;;;;;;;;4999488;28;20033;-63
2022/01/08 14:34:50;;;;;;;3.70;1.85;;;;;;;;;;4996057;28;20419;-62
2022/01/08 14:37:39;;;;;;;5.53;1.60;;;;;;;;;;4997079;28;20477;-65
2022/01/08 14:40:28;;;;;;;8.38;2.03;;;;;;;;;;4995973;28;20037;-64
2022/01/08 14:43:13;;;;;;;3.88;1.90;;;;;;;;;;5000700;28;20555;-63
2022/01/08 14:45:58;;;;;;;6.35;1.67;;;;;;;;;;4995707;28;20096;-65
2022/01/08 14:48:44;;;;;;;5.65;1.73;;;;;;;;;;4999762;28;20026;-64
2022/01/08 14:51:32;;;;;;;3.30;1.67;;;;;;;;;;5015395;28;20428;-65
2022/01/08 14:54:23;;;;;;;5.90;1.85;;;;;;;;;;5012092;28;20049;-63
2022/01/08 14:57:08;;;;;;;5.05;1.90;;;;;;;;;;5014899;28;20471;-66
2022/01/08 14:59:54;;;;;;;2.60;1.67;;;;;;;;;;4995661;28;20034;-61
2022/01/08 15:02:40;;;;;;;5.78;2.72;;;;;;;;;;4995829;28;20438;-64
2022/01/08 15:05:25;;;;;;;2.60;1.80;;;;;;;;;;5014982;28;20076;-63
2022/01/08 15:08:10;;;;;;;6.43;1.85;;;;;;;;;;5013862;28;20108;-63
2022/01/08 15:10:56;;;;;;;3.65;1.40;;;;;;;;;;5010428;28;20037;-64
2022/01/08 15:13:41;;;;;;;5.75;1.92;;;;;;;;;;5007174;28;20021;-62
2022/01/08 15:16:27;;;;;;;3.67;1.70;;;;;;;;;;5029809;28;20384;-62
2022/01/08 15:19:12;;;;;;;7.85;2.72;;;;;;;;;;5008683;28;20061;-63
2022/01/08 15:21:58;;;;;;;3.42;1.98;;;;;;;;;;5009321;28;20045;-66
2022/01/08 15:24:44;;;;;;;6.88;1.85;;;;;;;;;;5011095;28;20099;-64
2022/01/08 15:27:30;;;;;;;3.88;2.00;;;;;;;;;;5008995;28;20092;-65
2022/01/08 15:30:15;;;;;;;3.92;2.00;;;;;;;;;;5001627;28;20041;-67
2022/01/08 15:33:00;;;;;;;3.17;1.88;;;;;;;;;;4998781;28;20540;-67
2022/01/08 15:35:46;;;;;;;2.75;1.52;;;;;;;;;;4997118;28;20037;-53
2022/01/08 15:38:31;;;;;;;17.10;9.82;;;;;;;;;;5007368;28;20037;-53
2022/01/08 15:41:17;;;;;;;8.13;3.85;;;;;;;;;;5016461;28;20043;-66
2022/01/08 15:44:03;;;;;;;7.70;2.28;;;;;;;;;;5011995;28;20038;-66
2022/01/08 15:46:48;;;;;;;2.40;1.60;;;;;;;;;;5010081;28;20041;-65
2022/01/08 15:49:33;;;;;;;3.50;1.73;;;;;;;;;;5012147;28;20029;-65
2022/01/08 15:52:19;;;;;;;3.30;1.50;;;;;;;;;;5013363;28;20041;-63
2022/01/08 15:55:04;;;;;;;14.10;1.77;;;;;;;;;;5012998;28;20531;-63
2022/01/08 15:57:49;;;;;;;5.07;1.77;;;;;;;;;;5009234;28;20037;-58
2022/01/08 16:00:35;;;;;;;2.47;1.50;;;;;;;;;;5006852;28;20498;-57
2022/01/08 16:03:20;;;;;;;2.90;1.48;;;;;;;;;;5009231;28;20037;-65
2022/01/08 16:06:05;;;;;;;3.22;1.63;;;;;;;;;;5013496;28;20108;-66
2022/01/08 16:08:50;;;;;;;4.15;1.45;;;;;;;;;;5019641;28;20161;-66
2022/01/08 16:11:36;;;;;;;7.05;1.85;;;;;;;;;;5025191;28;20048;-63
2022/01/08 16:14:21;;;;;;;2.92;1.30;;;;;;;;;;5013118;28;20048;-64
2022/01/08 16:17:06;;;;;;;7.10;1.58;;;;;;;;;;4995882;28;20084;-67
2022/01/08 16:19:52;;;;;;;2.67;1.50;;;;;;;;;;5013925;28;20061;-62
2022/01/08 16:22:37;;;;;;;4.47;1.55;;;;;;;;;;5012636;28;20683;-63
2022/01/08 16:25:22;;;;;;;7.43;1.92;;;;;;;;;;5013556;28;20476;-61
2022/01/08 16:28:11;;;;;;;2.50;1.30;;;;;;;;;;5002045;28;20042;-61
2022/01/08 16:30:56;;;;;;;5.50;1.67;;;;;;;;;;4995022;28;20034;-62
2022/01/08 16:33:42;;;;;;;3.50;2.20;;;;;;;;;;5008348;28;20080;-63
2022/01/08 16:36:27;;;;;;;5.65;1.50;;;;;;;;;;5002745;28;20040;-66
2022/01/08 16:39:14;;;;;;;3.72;1.75;;;;;;;;;;5009382;28;20469;-65
2022/01/08 16:42:02;;;;;;;6.10;2.30;;;;;;;;;;5015203;28;20491;-65
2022/01/08 16:44:47;;;;;;;2.92;1.65;;;;;;;;;;5015846;28;20056;-66
2022/01/08 16:47:33;;;;;;;2.83;1.55;;;;;;;;;;5011715;28;20029;-65
2022/01/08 16:50:19;;;;;;;4.93;1.90;;;;;;;;;;5006850;28;20439;-68
2022/01/08 16:53:05;;;;;;;5.53;2.60;;;;;;;;;;5010232;28;20495;-64
2022/01/08 16:55:51;;;;;;;40.00;24.25;;;;;;;;;;5025688;28;20036;-66
2022/01/08 16:58:36;;;;;;;10.35;4.35;;;;;;;;;;5015396;28;20033;-64